createdAt,value
2017-06-13T00:02:22.823Z,3.03
2017-06-13T00:04:50.299Z,3.10
2017-06-13T00:07:17.739Z,2.87
2017-06-13T00:09:45.179Z,2.97
2017-06-13T00:12:12.666Z,3.23
2017-06-13T00:14:40.103Z,2.10
2017-06-13T00:17:07.550Z,2.20
2017-06-13T00:19:35.005Z,2.20
2017-06-13T00:22:02.441Z,2.90
2017-06-13T00:24:29.931Z,3.43
2017-06-13T00:26:57.372Z,3.27
2017-06-13T00:29:24.825Z,2.80
2017-06-13T00:31:52.291Z,3.03
2017-06-13T00:34:19.728Z,3.07
2017-06-13T00:36:47.212Z,3.00
2017-06-13T00:39:14.650Z,3.10
2017-06-13T00:41:42.089Z,3.10
2017-06-13T00:44:09.565Z,2.63
2017-06-13T00:46:37.009Z,2.83
2017-06-13T00:49:04.447Z,3.03
2017-06-13T00:51:31.905Z,2.47
2017-06-13T00:53:59.343Z,2.27
2017-06-13T00:56:26.959Z,2.50
2017-06-13T00:58:54.396Z,3.33
2017-06-13T01:01:21.837Z,2.40
2017-06-13T01:03:49.358Z,6.60
2017-06-13T01:06:16.867Z,3.73
2017-06-13T01:08:44.307Z,3.80
2017-06-13T01:11:11.966Z,2.73
2017-06-13T01:13:39.405Z,2.50
2017-06-13T01:16:06.848Z,2.37
2017-06-13T01:18:34.384Z,2.63
2017-06-13T01:21:01.820Z,2.27
2017-06-13T01:23:29.324Z,2.87
2017-06-13T01:25:56.767Z,3.10
2017-06-13T01:28:24.216Z,2.77
2017-06-13T01:30:51.822Z,3.10
2017-06-13T01:33:19.275Z,2.60
2017-06-13T01:35:46.741Z,2.10
2017-06-13T01:38:14.229Z,2.63
2017-06-13T01:40:42.287Z,2.43
2017-06-13T01:43:09.738Z,2.50
2017-06-13T01:45:37.201Z,2.60
2017-06-13T01:48:04.634Z,3.03
2017-06-13T01:50:32.095Z,2.50
2017-06-13T01:52:59.754Z,2.43
2017-06-13T01:55:27.228Z,2.33
2017-06-13T01:57:54.683Z,2.47
2017-06-13T02:00:22.203Z,2.47
2017-06-13T02:02:49.643Z,2.83
2017-06-13T02:05:17.085Z,2.60
2017-06-13T02:07:45.297Z,2.60
2017-06-13T02:10:12.743Z,3.03
2017-06-13T02:12:40.188Z,2.83
2017-06-13T02:15:07.691Z,2.60
2017-06-13T02:17:35.139Z,2.70
2017-06-13T02:20:02.593Z,2.97
2017-06-13T02:22:30.225Z,2.70
2017-06-13T02:24:57.664Z,2.63
2017-06-13T02:27:25.498Z,2.30
2017-06-13T02:29:52.959Z,2.70
2017-06-13T02:32:20.430Z,2.87
2017-06-13T02:34:47.911Z,3.57
2017-06-13T02:37:15.358Z,3.00
2017-06-13T02:39:42.806Z,2.20
2017-06-13T02:42:10.494Z,2.87
2017-06-13T02:44:37.938Z,2.60
2017-06-13T02:47:05.397Z,2.60
2017-06-13T02:49:32.909Z,3.33
2017-06-13T02:52:00.404Z,2.90
2017-06-13T02:54:27.854Z,2.50
2017-06-13T02:56:55.507Z,2.53
2017-06-13T02:59:22.947Z,2.67
2017-06-13T03:01:50.388Z,3.70
2017-06-13T03:04:17.877Z,2.87
2017-06-13T03:06:51.153Z,2.70
2017-06-13T03:09:25.386Z,2.70
2017-06-13T03:11:52.822Z,3.13
2017-06-13T03:14:20.865Z,3.00
2017-06-13T03:16:48.492Z,2.77
2017-06-13T03:19:15.941Z,2.33
2017-06-13T03:21:43.396Z,2.80
2017-06-13T03:24:10.912Z,3.37
2017-06-13T03:26:38.539Z,3.50
2017-06-13T03:29:06.001Z,2.87
2017-06-13T03:31:33.453Z,3.00
2017-06-13T03:34:00.976Z,2.60
2017-06-13T03:36:28.437Z,2.20
2017-06-13T03:38:55.879Z,3.10
2017-06-13T03:41:24.238Z,2.70
2017-06-13T03:43:51.686Z,3.13
2017-06-13T03:46:19.131Z,3.00
2017-06-13T03:48:46.779Z,3.80
2017-06-13T03:51:14.231Z,2.57
2017-06-13T03:53:41.677Z,2.80
2017-06-13T03:56:09.139Z,3.10
2017-06-13T03:58:36.618Z,3.17
2017-06-13T04:01:04.066Z,3.23
2017-06-13T04:03:31.720Z,3.27
2017-06-13T04:05:59.163Z,3.73
2017-06-13T04:08:26.605Z,2.70
2017-06-13T04:10:54.249Z,3.50
2017-06-13T04:13:21.712Z,3.37
2017-06-13T04:15:49.158Z,3.00
2017-06-13T04:18:16.629Z,2.70
2017-06-13T04:20:44.084Z,3.50
2017-06-13T04:23:11.555Z,3.20
2017-06-13T04:25:39.040Z,4.03
2017-06-13T04:28:06.484Z,3.23
2017-06-13T04:30:33.936Z,3.20
2017-06-13T04:33:01.447Z,2.60
2017-06-13T04:35:28.899Z,3.33
2017-06-13T04:37:56.348Z,3.00
2017-06-13T04:40:23.815Z,2.67
2017-06-13T04:42:52.140Z,2.70
2017-06-13T04:45:19.571Z,3.40
2017-06-13T04:47:47.060Z,3.17
2017-06-13T04:50:14.511Z,3.10
2017-06-13T04:52:41.963Z,2.73
2017-06-13T04:55:09.489Z,3.33
2017-06-13T04:57:36.948Z,3.47
2017-06-13T05:00:04.411Z,3.20
2017-06-13T05:02:31.920Z,3.17
2017-06-13T05:04:59.405Z,3.53
2017-06-13T05:07:26.847Z,3.40
2017-06-13T05:09:54.319Z,2.83
2017-06-13T05:12:21.800Z,3.07
2017-06-13T05:14:49.439Z,3.10
2017-06-13T05:17:17.738Z,2.90
2017-06-13T05:19:45.187Z,2.53
2017-06-13T05:22:12.837Z,3.13
2017-06-13T05:24:40.309Z,3.30
2017-06-13T05:27:07.752Z,3.57
2017-06-13T05:29:35.251Z,3.10
2017-06-13T05:32:02.704Z,3.27
2017-06-13T05:34:30.689Z,2.93
2017-06-13T05:36:58.175Z,3.20
2017-06-13T05:39:25.621Z,3.57
2017-06-13T05:41:53.463Z,3.77
2017-06-13T05:44:21.747Z,3.77
2017-06-13T05:46:49.993Z,3.33
2017-06-13T05:49:17.457Z,3.23
2017-06-13T05:51:44.944Z,3.10
2017-06-13T05:54:12.390Z,3.00
2017-06-13T05:56:39.832Z,3.20
2017-06-13T05:59:07.307Z,3.03
2017-06-13T06:01:34.785Z,2.50
2017-06-13T06:04:02.231Z,2.53
2017-06-13T06:06:29.670Z,3.10
2017-06-13T06:08:57.169Z,3.10
2017-06-13T06:11:24.622Z,3.30
2017-06-13T06:13:52.773Z,3.37
2017-06-13T06:16:20.301Z,3.20
2017-06-13T06:18:47.744Z,3.40
2017-06-13T06:21:15.213Z,3.50
2017-06-13T06:23:42.652Z,3.20
2017-06-13T06:26:10.126Z,3.00
2017-06-13T06:28:37.566Z,3.23
2017-06-13T06:31:05.007Z,3.40
2017-06-13T06:33:32.636Z,3.00
2017-06-13T06:36:00.124Z,2.37
2017-06-13T06:38:27.587Z,2.90
2017-06-13T06:40:55.454Z,3.10
2017-06-13T06:43:22.912Z,2.40
2017-06-13T06:45:50.421Z,3.00
2017-06-13T06:48:18.423Z,3.20
2017-06-13T06:50:45.864Z,2.80
2017-06-13T06:53:13.350Z,2.90
2017-06-13T06:55:40.787Z,3.20
2017-06-13T06:58:08.248Z,3.37
2017-06-13T07:00:35.763Z,3.63
2017-06-13T07:03:03.204Z,2.97
2017-06-13T07:05:31.301Z,3.10
2017-06-13T07:07:59.400Z,2.53
2017-06-13T07:10:26.882Z,4.23
2017-06-13T07:12:54.379Z,4.00
2017-06-13T07:15:21.828Z,4.30
2017-06-13T07:17:49.269Z,3.87
2017-06-13T07:20:17.615Z,3.40
2017-06-13T07:22:45.099Z,4.77
2017-06-13T07:25:13.503Z,5.10
2017-06-13T07:27:41.153Z,5.33
2017-06-13T07:30:08.663Z,5.03
2017-06-13T07:32:36.112Z,4.40
2017-06-13T07:35:03.773Z,5.40
2017-06-13T07:37:31.237Z,6.20
2017-06-13T07:39:58.689Z,5.40
2017-06-13T07:42:26.355Z,5.60
2017-06-13T07:44:53.815Z,5.00
2017-06-13T07:47:21.288Z,5.40
2017-06-13T07:49:48.825Z,5.20
2017-06-13T07:52:16.288Z,5.03
2017-06-13T07:54:43.774Z,5.50
2017-06-13T07:57:11.407Z,5.30
2017-06-13T07:59:39.684Z,4.60
2017-06-13T08:02:07.125Z,5.03
2017-06-13T08:04:35.359Z,4.87
2017-06-13T08:07:02.800Z,5.20
2017-06-13T08:09:31.101Z,4.47
2017-06-13T08:11:58.559Z,4.30
2017-06-13T08:14:25.999Z,4.87
2017-06-13T08:16:54.158Z,4.23
2017-06-13T08:19:21.624Z,4.47
2017-06-13T08:21:49.467Z,4.37
2017-06-13T08:24:16.983Z,5.03
2017-06-13T08:26:44.428Z,5.33
2017-06-13T08:29:11.880Z,3.83
2017-06-13T08:31:39.386Z,4.43
2017-06-13T08:34:06.829Z,3.50
2017-06-13T08:36:34.282Z,3.70
2017-06-13T08:39:01.782Z,3.93
2017-06-13T08:41:29.223Z,3.90
2017-06-13T08:43:56.660Z,4.33
2017-06-13T08:46:24.142Z,3.57
2017-06-13T08:48:51.624Z,3.50
2017-06-13T08:51:19.130Z,3.87
2017-06-13T08:53:46.573Z,4.00
2017-06-13T08:56:14.897Z,4.23
2017-06-13T08:58:42.519Z,3.07
2017-06-13T09:01:10.030Z,3.73
2017-06-13T09:03:38.417Z,3.40
2017-06-13T09:06:06.049Z,3.03
2017-06-13T09:08:33.499Z,4.23
2017-06-13T09:11:00.964Z,3.23
2017-06-13T09:13:28.466Z,3.50
2017-06-13T09:15:56.512Z,3.33
2017-06-13T09:18:23.952Z,2.60
2017-06-13T09:20:51.401Z,3.13
2017-06-13T09:23:18.894Z,3.33
2017-06-13T09:25:46.340Z,3.93
2017-06-13T09:28:13.798Z,3.47
2017-06-13T09:30:41.302Z,3.27
2017-06-13T09:33:08.745Z,2.83
2017-06-13T09:35:36.211Z,2.90
2017-06-13T09:38:03.894Z,2.73
2017-06-13T09:40:31.371Z,3.47
2017-06-13T09:42:58.821Z,3.47
2017-06-13T09:45:26.457Z,3.20
2017-06-13T09:47:53.940Z,2.80
2017-06-13T09:50:21.392Z,2.80
2017-06-13T09:52:48.877Z,3.03
2017-06-13T09:55:16.316Z,3.13
2017-06-13T09:57:43.774Z,3.07
2017-06-13T10:00:11.252Z,2.93
2017-06-13T10:02:39.389Z,2.50
2017-06-13T10:05:07.062Z,3.40
2017-06-13T10:07:34.512Z,2.20
2017-06-13T10:10:01.963Z,2.27
2017-06-13T10:12:29.601Z,2.50
2017-06-13T10:14:57.042Z,2.40
2017-06-13T10:17:24.488Z,2.57
2017-06-13T10:19:51.959Z,3.00
2017-06-13T10:22:19.412Z,2.60
2017-06-13T10:24:46.903Z,2.23
2017-06-13T10:27:15.156Z,2.40
2017-06-13T10:29:42.608Z,3.90
2017-06-13T10:32:10.100Z,2.10
2017-06-13T10:34:37.564Z,2.93
2017-06-13T10:37:05.007Z,3.13
2017-06-13T10:39:32.499Z,3.13
2017-06-13T10:42:01.500Z,2.10
2017-06-13T10:44:28.960Z,2.53
2017-06-13T10:46:56.609Z,2.60
2017-06-13T10:49:24.059Z,2.83
2017-06-13T10:51:51.586Z,2.50
2017-06-13T10:54:19.047Z,2.60
2017-06-13T10:59:37.327Z,3.40
2017-06-13T11:02:04.778Z,2.10
2017-06-13T11:04:32.223Z,2.17
2017-06-13T11:06:59.703Z,2.77
2017-06-13T11:09:27.209Z,2.60
2017-06-13T11:11:54.665Z,3.00
2017-06-13T11:14:22.114Z,2.57
2017-06-13T11:16:49.610Z,2.83
2017-06-13T11:19:17.084Z,2.70
2017-06-13T11:21:44.539Z,2.53
2017-06-13T11:24:12.021Z,2.40
2017-06-13T11:26:39.879Z,3.17
2017-06-13T11:29:07.364Z,2.83
2017-06-13T11:31:34.904Z,2.83
2017-06-13T11:34:02.763Z,2.57
2017-06-13T11:36:35.291Z,2.40
2017-06-13T11:39:02.771Z,2.90
2017-06-13T11:41:30.212Z,3.20
2017-06-13T11:43:57.672Z,2.50
2017-06-13T11:46:25.138Z,3.63
2017-06-13T11:48:52.599Z,2.93
2017-06-13T11:51:20.062Z,3.00
2017-06-13T11:53:47.538Z,3.43
2017-06-13T11:56:14.977Z,3.13
2017-06-13T11:58:42.446Z,3.00
2017-06-13T12:01:09.885Z,2.90
2017-06-13T12:03:37.776Z,3.23
2017-06-13T12:06:05.218Z,2.80
2017-06-13T12:08:32.664Z,2.90
2017-06-13T12:11:00.146Z,3.50
2017-06-13T12:13:27.996Z,2.47
2017-06-13T12:15:55.434Z,2.90
2017-06-13T12:18:22.924Z,3.93
2017-06-13T12:20:50.368Z,2.83
2017-06-13T12:23:17.840Z,2.53
2017-06-13T12:25:45.310Z,2.50
2017-06-13T12:28:12.765Z,3.70
2017-06-13T12:30:40.260Z,2.93
2017-06-13T12:33:07.711Z,3.00
2017-06-13T12:35:35.144Z,3.00
2017-06-13T12:38:02.778Z,3.37
2017-06-13T12:40:30.249Z,3.43
2017-06-13T12:42:57.741Z,3.40
2017-06-13T12:45:25.250Z,3.03
2017-06-13T12:47:52.707Z,3.40
2017-06-13T12:50:20.144Z,3.00
2017-06-13T12:52:47.677Z,3.70
2017-06-13T12:55:15.129Z,3.40
2017-06-13T12:57:42.597Z,3.83
2017-06-13T13:00:10.071Z,3.90
2017-06-13T13:02:37.515Z,4.30
2017-06-13T13:05:04.958Z,3.30
2017-06-13T13:07:32.624Z,3.10
2017-06-13T13:10:00.072Z,4.17
2017-06-13T13:12:27.531Z,3.33
2017-06-13T13:14:55.045Z,3.33
2017-06-13T13:17:22.507Z,3.30
2017-06-13T13:19:49.948Z,3.10
2017-06-13T13:22:17.727Z,3.73
2017-06-13T13:24:45.172Z,4.97
2017-06-13T13:27:12.624Z,3.60
2017-06-13T13:29:40.265Z,3.20
2017-06-13T13:32:07.704Z,3.20
2017-06-13T13:34:35.176Z,3.30
2017-06-13T13:37:02.655Z,3.20
2017-06-13T13:39:30.103Z,3.10
2017-06-13T13:41:57.780Z,3.43
2017-06-13T13:44:25.267Z,2.93
2017-06-13T13:46:52.716Z,3.57
2017-06-13T13:49:20.220Z,3.00
2017-06-13T13:51:47.677Z,3.03
2017-06-13T13:54:15.402Z,3.20
2017-06-13T13:56:42.845Z,3.20
2017-06-13T13:59:10.301Z,3.20
2017-06-13T14:01:37.943Z,3.30
2017-06-13T14:04:05.416Z,3.13
2017-06-13T14:06:32.880Z,3.27
2017-06-13T14:09:00.376Z,2.93
2017-06-13T14:11:27.832Z,3.57
2017-06-13T14:13:55.578Z,3.43
2017-06-13T14:16:23.213Z,3.60
2017-06-13T14:18:50.661Z,3.43
2017-06-13T14:21:18.156Z,2.73
2017-06-13T14:23:45.771Z,3.63
2017-06-13T14:26:13.223Z,3.53
2017-06-13T14:28:40.667Z,3.40
2017-06-13T14:31:08.266Z,2.70
2017-06-13T14:33:35.705Z,4.10
2017-06-13T14:36:03.161Z,2.87
2017-06-13T14:38:30.932Z,3.30
2017-06-13T14:40:58.369Z,2.83
2017-06-13T14:43:26.045Z,3.83
2017-06-13T14:45:54.034Z,3.43
2017-06-13T14:48:21.515Z,3.80
2017-06-13T14:50:49.005Z,3.53
2017-06-13T14:53:16.448Z,3.47
2017-06-13T14:55:44.500Z,3.37
2017-06-13T14:58:12.117Z,3.87
2017-06-13T15:00:39.566Z,3.90
2017-06-13T15:03:07.011Z,4.53
2017-06-13T15:05:34.673Z,5.13
2017-06-13T15:08:02.185Z,4.20
2017-06-13T15:10:29.657Z,4.17
2017-06-13T15:12:57.178Z,3.97
2017-06-13T15:15:24.668Z,4.00
2017-06-13T15:17:52.641Z,4.00
2017-06-13T15:20:20.131Z,3.70
2017-06-13T15:22:47.587Z,3.90
2017-06-13T15:25:15.052Z,3.77
2017-06-13T15:27:42.551Z,3.50
2017-06-13T15:30:10.009Z,3.70
2017-06-13T15:32:37.454Z,3.60
2017-06-13T15:35:04.965Z,4.00
2017-06-13T15:37:32.460Z,4.20
2017-06-13T15:40:00.142Z,3.60
2017-06-13T15:42:28.242Z,3.73
2017-06-13T15:44:55.720Z,3.80
2017-06-13T15:47:23.212Z,3.60
2017-06-13T15:49:50.695Z,4.27
2017-06-13T15:52:18.272Z,3.20
2017-06-13T15:54:45.720Z,3.30
2017-06-13T15:57:13.273Z,3.33
2017-06-13T15:59:40.728Z,3.87
2017-06-13T16:02:08.200Z,4.37
2017-06-13T16:04:35.684Z,3.30
2017-06-13T16:07:03.146Z,3.53
2017-06-13T16:09:30.945Z,3.17
2017-06-13T16:11:58.384Z,3.63
2017-06-13T16:14:25.852Z,3.40
2017-06-13T16:16:53.364Z,3.50
2017-06-13T16:19:21.212Z,3.77
2017-06-13T16:21:48.688Z,3.20
2017-06-13T16:24:16.779Z,3.00
2017-06-13T16:29:53.203Z,3.17
2017-06-13T16:32:20.674Z,3.50
2017-06-13T16:34:48.116Z,3.40
2017-06-13T16:37:15.585Z,3.27
2017-06-13T16:39:43.088Z,3.20
2017-06-13T16:42:10.935Z,2.90
2017-06-13T16:44:38.427Z,2.97
2017-06-13T16:47:05.958Z,3.47
2017-06-13T16:49:33.402Z,3.00
2017-06-13T16:52:00.909Z,3.50
2017-06-13T16:54:28.380Z,3.17
2017-06-13T16:56:56.710Z,3.50
2017-06-13T16:59:24.159Z,3.87
2017-06-13T17:01:51.647Z,3.57
2017-06-13T17:04:20.359Z,3.23
2017-06-13T17:06:47.836Z,4.77
2017-06-13T17:09:15.302Z,3.00
2017-06-13T17:11:42.811Z,3.60
2017-06-13T17:14:10.271Z,4.17
2017-06-13T17:22:41.470Z,3.57
2017-06-13T17:25:08.948Z,3.13
2017-06-13T17:27:36.394Z,2.93
2017-06-13T17:30:03.868Z,4.00
2017-06-13T17:32:31.372Z,3.60
2017-06-13T17:34:58.868Z,3.63
2017-06-13T17:37:26.298Z,3.57
2017-06-13T17:39:53.889Z,3.30
2017-06-13T17:42:22.003Z,3.70
2017-06-13T17:44:49.495Z,3.20
2017-06-13T17:47:16.973Z,3.33
2017-06-13T17:49:44.457Z,3.10
2017-06-13T17:52:11.952Z,3.80
2017-06-13T17:54:40.316Z,3.37
2017-06-13T17:57:07.764Z,3.20
2017-06-13T17:59:35.431Z,3.17
2017-06-13T18:02:02.928Z,3.57
2017-06-13T18:04:30.805Z,3.27
2017-06-13T18:06:58.265Z,3.57
2017-06-13T18:09:25.725Z,3.20
2017-06-13T18:11:53.194Z,3.00
2017-06-13T18:14:21.264Z,3.80
2017-06-13T18:16:48.715Z,4.00
2017-06-13T18:19:16.181Z,3.63
2017-06-13T18:21:43.659Z,3.80
2017-06-13T18:24:11.337Z,4.20
2017-06-13T18:26:39.203Z,3.47
2017-06-13T18:29:07.046Z,3.33
2017-06-13T18:31:34.691Z,3.13
2017-06-13T18:34:02.146Z,3.90
2017-06-13T18:36:29.608Z,3.60
2017-06-13T18:38:57.077Z,3.70
2017-06-13T18:41:24.583Z,4.27
2017-06-13T18:43:52.248Z,3.97
2017-06-13T18:46:23.655Z,3.80
2017-06-13T18:48:51.254Z,3.00
2017-06-13T18:51:18.721Z,3.17
2017-06-13T18:53:46.719Z,3.57
2017-06-13T18:56:14.774Z,4.10
2017-06-13T18:58:42.246Z,3.80
2017-06-13T19:01:10.994Z,3.47
2017-06-13T19:03:38.680Z,3.50
2017-06-13T19:06:06.162Z,3.63
2017-06-13T19:08:33.716Z,3.60
2017-06-13T19:11:01.178Z,3.20
2017-06-13T19:13:28.615Z,4.03
2017-06-13T19:15:56.611Z,3.50
2017-06-13T19:18:24.450Z,4.37
2017-06-13T19:20:51.937Z,3.87
2017-06-13T19:23:19.410Z,4.30
2017-06-13T19:25:47.097Z,3.53
2017-06-13T19:28:14.556Z,3.80
2017-06-13T19:30:42.213Z,4.33
2017-06-13T19:33:09.669Z,3.83
2017-06-13T19:35:37.128Z,3.97
2017-06-13T19:38:04.597Z,3.67
2017-06-13T19:40:32.046Z,3.47
2017-06-13T19:42:59.597Z,3.73
2017-06-13T19:45:27.409Z,3.10
2017-06-13T19:47:55.003Z,3.40
2017-06-13T19:50:23.714Z,3.67
2017-06-13T19:52:51.163Z,3.40
2017-06-13T19:55:18.833Z,3.80
2017-06-13T19:57:46.314Z,3.90
2017-06-13T20:00:13.801Z,4.40
2017-06-13T20:02:41.332Z,3.83
2017-06-13T20:05:08.820Z,3.63
2017-06-13T20:07:36.368Z,3.83
2017-06-13T20:10:03.848Z,3.63
2017-06-13T20:12:31.824Z,3.53
2017-06-13T20:14:59.440Z,3.63
2017-06-13T20:17:26.914Z,4.50
2017-06-13T20:19:54.359Z,3.70
2017-06-13T20:22:21.859Z,4.13
2017-06-13T20:24:49.356Z,5.03
2017-06-13T20:27:22.859Z,4.13
2017-06-13T20:29:50.345Z,3.93
2017-06-13T20:32:17.816Z,4.57
2017-06-13T20:34:45.456Z,4.13
2017-06-13T20:37:12.899Z,4.20
2017-06-13T20:39:40.337Z,4.57
2017-06-13T20:42:07.819Z,4.37
2017-06-13T20:44:35.259Z,4.43
2017-06-13T20:47:02.708Z,4.53
2017-06-13T20:49:30.340Z,4.33
2017-06-13T20:51:57.799Z,5.17
2017-06-13T20:54:25.641Z,4.20
2017-06-13T20:56:53.136Z,4.00
2017-06-13T20:59:20.996Z,5.03
2017-06-13T21:01:48.470Z,4.47
2017-06-13T21:04:16.837Z,5.23
2017-06-13T21:06:44.307Z,4.37
2017-06-13T21:09:11.748Z,5.33
2017-06-13T21:11:39.267Z,4.07
2017-06-13T21:14:06.707Z,4.80
2017-06-13T21:16:34.567Z,4.90
2017-06-13T21:19:02.693Z,5.10
2017-06-13T21:21:31.070Z,5.47
2017-06-13T21:23:58.524Z,5.27
2017-06-13T21:26:26.032Z,5.40
2017-06-13T21:28:53.523Z,4.83
2017-06-13T21:31:21.397Z,4.60
2017-06-13T21:33:48.890Z,5.00
2017-06-13T21:36:16.338Z,5.43
2017-06-13T21:38:43.786Z,5.10
2017-06-13T21:41:11.278Z,5.80
2017-06-13T21:43:38.738Z,6.07
2017-06-13T21:46:06.190Z,6.43
2017-06-13T21:48:33.695Z,6.00
2017-06-13T21:51:01.175Z,6.03
2017-06-13T21:53:28.631Z,5.97
2017-06-13T21:55:56.106Z,6.40
2017-06-13T21:58:23.548Z,5.90
2017-06-13T22:00:51.049Z,6.53
2017-06-13T22:03:18.509Z,6.17
2017-06-13T22:06:03.114Z,5.70
2017-06-13T22:08:30.591Z,6.00
2017-06-13T22:10:58.057Z,6.60
2017-06-13T22:13:25.546Z,6.70
2017-06-13T22:15:52.992Z,7.50
2017-06-13T22:18:20.435Z,6.87
2017-06-13T22:20:47.901Z,7.07
2017-06-13T22:23:15.416Z,6.10
2017-06-13T22:25:43.102Z,7.00
2017-06-13T22:28:10.545Z,7.30
2017-06-13T22:30:38.804Z,7.10
2017-06-13T22:33:06.528Z,7.07
2017-06-13T22:35:33.995Z,7.07
2017-06-13T22:38:02.200Z,6.87
2017-06-13T22:40:29.790Z,7.27
2017-06-13T22:42:57.320Z,7.57
2017-06-13T22:45:24.791Z,7.03
2017-06-13T22:47:53.163Z,6.60
2017-06-13T22:50:20.603Z,8.00
2017-06-13T22:52:48.080Z,7.00
2017-06-13T22:55:15.713Z,6.97
2017-06-13T22:57:43.168Z,7.03
2017-06-13T23:00:10.635Z,6.77
2017-06-13T23:02:38.513Z,7.70
2017-06-13T23:05:06.021Z,7.17
2017-06-13T23:07:33.466Z,7.70
2017-06-13T23:10:00.923Z,6.90
2017-06-13T23:12:28.851Z,7.27
2017-06-13T23:14:57.103Z,7.40
2017-06-13T23:17:24.923Z,7.57
2017-06-13T23:19:52.432Z,7.33
2017-06-13T23:22:19.885Z,8.03
2017-06-13T23:24:47.596Z,6.80
2017-06-13T23:27:15.095Z,8.17
2017-06-13T23:29:42.536Z,8.20
2017-06-13T23:32:10.174Z,8.83
2017-06-13T23:34:37.616Z,8.60
2017-06-13T23:37:05.081Z,8.17
2017-06-13T23:39:32.568Z,7.67
2017-06-13T23:42:00.075Z,8.60
2017-06-13T23:44:27.516Z,8.30
2017-06-13T23:46:54.989Z,7.80
2017-06-13T23:49:22.430Z,8.73
2017-06-13T23:51:50.807Z,8.17
2017-06-13T23:54:18.263Z,7.80
2017-06-13T23:56:45.718Z,7.50
2017-06-13T23:59:13.340Z,8.23
